Aérodrome :
LOGIN :

S'inscrire | Disclaimer

   EN    FR    IT 

 










Légende :    VFR   VFR Marginal   IFR   IFR Intensif   IFR Très Intensif
Visi : 
Plafond : 
>= 8 km
>= 3000ft
5 à 8 km
1000 à 3000 ft
1500m à 5 km
500 à 1000 ft
800 à 1500m
200 à 500 ft
< 800m
< 200 ft
Symboles :   Orages  Brouillard  Fortes neiges  Fortes précipitations  Vent > 20 kt
SIGMETs :   Divers  Orages  Givrage  Turbulence  Onde Orograph.  Cendres Volcan.







- Altitude de l'aérodrome : 410 ft
- Code IATA : AVB


LIPA - Aviano AB Pordenone

DERNIER METAR :
  • 280808Z 21011KT 9000 -RA FEW010 SCT020 BKN030 13/12 Q1003 RMK OVC VIS MIN 6000N WIND THR05 23011KT WIND THR23 22013KT A2964 WHT

METARs EXPIRÉS :
  • 280755Z 20009KT 5000 -RA BR FEW005 FEW015CB BKN025 13/12 Q1003 RMK OVC VIS MIN 3000SW WIND THR05 21010KT WIND THR23 20008KT A2963 YLO
  • 280655Z 21009KT 3000 -RA BR FEW005 SCT010 BKN025 13/11 Q1002 RMK OVC VIS MIN 3000 WIND THR05 23008KT WIND THR23 21009KT A2962 YLO
  • 280610Z 18010KT 2000 -RA BR SCT005 FEW010CB BKN020 13/12 Q1002 RMK OVC VIS MIN 1500SW WIND THR05 20010KT WIND THR23 18010KT A2961 AMB
  • 280555Z 07008KT 1300 -RA BR SCT005 FEW010CB BKN020 13/11 Q1002 RMK OVC VIS MIN 1300 WIND THR05 17011KT WIND THR23 17009KT AMB

TAF TAF LIPA
Valide du 28 à 06h jusqu'au 28 à 15h UTC


280500Z 2806/2815 19005KT 2500 RA BR SCT010 BKN020
Pas de NOTAMs connus pour ce terrain.
6 SIGMETs publiés pour la FIR Milano (LIMM) :
 
Orages noyés dans la masse
LIMM SIGMET 21 VALID 280710/280910 LIMM- LIMM MILANO FIR EMBD TS OBS WI N4558 E00834 - N4638 E01251 - N4615 E01332 - N4533 E01022 - N4538 E00830 - N4558 E00834 TOP FL180 STNR NC=
Annulation du SIGMET 17
LIMM SIGMET 20 VALID 280530/280930 LIMM
LIMM MILANO FIR CNL SIGMET 17 280530/280930=
Turbulence forte
LIMM SIGMET 19 VALID 280530/280930 LIMM- LIMM MILANO FIR SEV TURB OBS W OF LINE N4704 E01143 - N4333 E01153 FL050/380 MOV E INTSF=
Onde orographique forte
LIMM SIGMET 16 VALID 280600/280900 LIMM- LIMM MILANO FIR SEV MTW FCST WI N4431 E01110 - N4419 E01027 - N4339 E01152 - N4331 E01341 - N4410 E01233 - N4440 E01154 - N4431 E01110 FL060/150 STNR INTSF=
LIMM SIGMET 15 VALID 280525/280925 LIMM- LIMM MILANO FIR SEV TURB FCST WI N4420 E01027 - N4339 E01152 - N4332 E01303 - N4434 E01050 - N4420 E01027 SFC/FL060 STNR NC=
LIMM SIGMET 14 VALID 280530/280930 LIMM- LIMM MILANO FIR SEV TURB FCST W OF LINE N4704 E01144 - N4306 E00936 FL030/300 MOV E INTSF=



MET'MAP, la Météo Aéronautique d'un coup d'oeil ! - Copyright ORBIFLY Décembre 2007 - Disclaimer

ORBIFLY MET'MAP TEAM :

Programmation & Développement : Alexandra Zaïnal
Conception & Développement : Baudouin d'Aumeries
Co-Programmation & Développement : Marc-Olivier Méhu
Soutien technique & logistique : Manuel Goepfert

Contact : metmap@orbifly.com




SOURCES & CREDITS :

   NOAA